createdAt,value
2018-12-24T00:01:18.516Z,9.30
2018-12-24T00:07:23.155Z,3.17
2018-12-24T00:13:27.892Z,1.87
2018-12-24T00:19:32.538Z,2.30
2018-12-24T00:25:37.210Z,2.63
2018-12-24T00:31:41.916Z,3.27
2018-12-24T00:37:46.607Z,2.13
2018-12-24T00:43:51.283Z,2.73
2018-12-24T00:49:55.977Z,2.33
2018-12-24T00:56:00.601Z,2.70
2018-12-24T01:02:05.259Z,1.77
2018-12-24T01:08:09.991Z,1.50
2018-12-24T01:14:14.654Z,1.30
2018-12-24T01:20:19.311Z,3.00
2018-12-24T01:26:24.005Z,3.37
2018-12-24T01:32:28.659Z,2.50
2018-12-24T01:38:33.322Z,1.37
2018-12-24T01:44:38.009Z,3.20
2018-12-24T01:50:42.710Z,2.00
2018-12-24T01:56:47.395Z,0.97
2018-12-24T02:02:52.042Z,1.10
2018-12-24T02:08:56.805Z,1.20
2018-12-24T02:15:01.457Z,1.30
2018-12-24T02:21:06.253Z,2.53
2018-12-24T02:27:10.905Z,1.30
2018-12-24T02:33:15.641Z,1.63
2018-12-24T02:39:20.366Z,2.27
2018-12-24T02:45:25.003Z,4.33
2018-12-24T02:51:29.674Z,2.60
2018-12-24T02:57:34.325Z,4.03
2018-12-24T03:03:39.014Z,4.17
2018-12-24T03:09:43.763Z,3.93
2018-12-24T03:15:48.433Z,4.50
2018-12-24T03:21:53.099Z,4.93
2018-12-24T03:27:57.818Z,5.67
2018-12-24T03:34:02.491Z,5.73
2018-12-24T03:40:07.155Z,8.93
2018-12-24T03:46:11.823Z,4.43
2018-12-24T03:52:16.535Z,6.23
2018-12-24T03:58:21.212Z,4.13
2018-12-24T04:04:25.913Z,4.17
2018-12-24T04:10:30.594Z,4.60
2018-12-24T04:16:35.339Z,3.43
2018-12-24T04:22:40.000Z,4.70
2018-12-24T04:28:44.650Z,6.33
2018-12-24T04:34:49.303Z,5.40
2018-12-24T04:40:53.976Z,3.70
2018-12-24T04:46:58.694Z,6.20
2018-12-24T04:53:03.351Z,8.30
2018-12-24T04:59:08.017Z,4.07
2018-12-24T05:05:12.685Z,4.47
2018-12-24T05:11:17.341Z,4.10
2018-12-24T05:17:22.070Z,4.23
2018-12-24T05:23:26.741Z,3.97
2018-12-24T05:29:31.410Z,8.30
2018-12-24T05:35:36.074Z,5.90
2018-12-24T05:41:40.726Z,5.87
2018-12-24T05:47:45.403Z,6.27
2018-12-24T05:53:50.031Z,6.73
2018-12-24T05:59:54.696Z,7.10
2018-12-24T06:05:59.363Z,4.50
2018-12-24T06:12:04.018Z,2.23
2018-12-24T06:18:08.682Z,2.37
2018-12-24T06:24:13.342Z,2.20
2018-12-24T06:30:18.013Z,3.03
2018-12-24T06:36:22.663Z,2.50
2018-12-24T06:42:27.320Z,3.03
2018-12-24T06:48:32.004Z,3.10
2018-12-24T06:54:36.637Z,2.30
2018-12-24T07:00:41.293Z,2.80
2018-12-24T07:06:45.993Z,3.90
2018-12-24T07:12:50.633Z,3.80
2018-12-24T07:18:55.314Z,3.37
2018-12-24T07:25:00.041Z,5.10
2018-12-24T07:31:04.686Z,4.27
2018-12-24T07:37:09.550Z,3.97
2018-12-24T07:43:14.296Z,4.87
2018-12-24T07:49:19.979Z,11.20
2018-12-24T07:55:24.715Z,8.30
2018-12-24T08:01:29.386Z,5.20
2018-12-24T08:07:34.060Z,7.20
2018-12-24T08:13:38.741Z,7.80
2018-12-24T08:19:43.392Z,7.20
2018-12-24T08:25:49.112Z,13.47
2018-12-24T08:31:53.851Z,7.83
2018-12-24T08:37:58.505Z,6.57
2018-12-24T08:44:03.167Z,4.93
2018-12-24T08:50:07.908Z,5.00
2018-12-24T08:56:12.561Z,5.37
2018-12-24T09:02:17.220Z,4.60
2018-12-24T09:08:23.055Z,3.60
2018-12-24T09:14:28.056Z,5.77
2018-12-24T09:20:32.704Z,3.50
2018-12-24T09:26:37.348Z,6.10
2018-12-24T09:32:42.033Z,4.43
2018-12-24T09:38:46.686Z,6.40
2018-12-24T09:44:58.730Z,6.70
2018-12-24T09:50:57.837Z,6.50
2018-12-24T09:57:02.502Z,4.80
2018-12-24T10:03:08.096Z,5.70
2018-12-24T10:09:13.056Z,5.10
2018-12-24T10:15:17.968Z,4.00
2018-12-24T10:21:22.706Z,6.27
2018-12-24T10:27:27.374Z,3.73
2018-12-24T10:33:32.153Z,2.57
2018-12-24T10:39:36.800Z,3.63
2018-12-24T10:45:41.457Z,3.90
2018-12-24T10:51:46.138Z,5.07
2018-12-24T10:57:50.797Z,3.87
2018-12-24T11:03:55.441Z,3.50
2018-12-24T11:10:00.217Z,4.73
2018-12-24T11:16:04.917Z,4.73
2018-12-24T11:22:09.592Z,6.80
2018-12-24T11:28:14.310Z,4.40
2018-12-24T11:34:19.043Z,7.53
2018-12-24T11:40:23.695Z,5.10
2018-12-24T11:46:28.343Z,5.13
2018-12-24T11:52:33.008Z,5.50
2018-12-24T11:58:37.675Z,23.43
2018-12-24T12:04:42.372Z,16.17
2018-12-24T12:10:47.015Z,7.63
2018-12-24T12:16:51.708Z,14.50
2018-12-24T12:22:56.384Z,8.53
2018-12-24T12:29:01.047Z,4.40
2018-12-24T12:35:06.246Z,4.80
2018-12-24T12:41:10.926Z,3.60
2018-12-24T12:47:15.657Z,4.20
2018-12-24T12:53:20.327Z,4.20
2018-12-24T12:59:25.013Z,4.73
2018-12-24T13:05:29.689Z,5.47
2018-12-24T13:11:34.341Z,4.37
2018-12-24T13:17:39.018Z,4.00
2018-12-24T13:23:43.700Z,4.00
2018-12-24T13:29:48.384Z,4.07
2018-12-24T13:35:53.113Z,4.97
2018-12-24T13:41:57.798Z,7.20
2018-12-24T13:48:02.487Z,5.17
2018-12-24T13:55:13.278Z,4.40
2018-12-24T14:01:56.293Z,4.43
2018-12-24T14:15:10.633Z,5.33
2018-12-24T14:21:53.646Z,4.30
2018-12-24T14:28:10.832Z,3.90
2018-12-24T14:34:34.794Z,4.10
2018-12-24T14:40:58.777Z,4.60
2018-12-24T14:47:22.777Z,4.47
2018-12-24T14:53:46.747Z,6.03
2018-12-24T15:00:10.758Z,13.33
2018-12-24T15:06:34.771Z,7.50
2018-12-24T15:12:58.789Z,7.83
2018-12-24T15:26:11.175Z,7.10
2018-12-24T15:32:35.076Z,6.43
2018-12-24T15:39:18.066Z,15.30
2018-12-24T15:45:41.954Z,16.40
2018-12-24T15:52:05.862Z,9.83
2018-12-24T15:58:29.753Z,8.00
2018-12-24T16:04:53.743Z,15.77
2018-12-24T16:11:17.635Z,7.87
2018-12-24T16:17:41.549Z,7.53
2018-12-24T16:24:05.518Z,10.53
2018-12-24T16:30:22.093Z,12.47
2018-12-24T16:36:45.991Z,8.50
2018-12-24T16:43:09.918Z,8.33
2018-12-24T16:49:33.870Z,9.17
2018-12-24T16:55:57.810Z,6.97
2018-12-24T17:02:21.735Z,8.93
2018-12-24T17:08:45.693Z,9.83
2018-12-24T17:15:09.597Z,12.30
2018-12-24T17:21:33.508Z,8.70
2018-12-24T17:27:50.188Z,8.53
2018-12-24T17:34:14.092Z,9.67
2018-12-24T17:40:38.075Z,8.40
2018-12-24T17:47:02.046Z,10.40
2018-12-24T17:53:45.081Z,13.20
2018-12-24T18:00:09.045Z,9.83
2018-12-24T18:06:32.993Z,7.00
2018-12-24T18:12:37.579Z,10.30
2018-12-24T18:18:42.156Z,9.60
2018-12-24T18:24:46.720Z,9.07
2018-12-24T18:30:51.277Z,8.90
2018-12-24T18:36:55.849Z,8.70
2018-12-24T18:43:00.466Z,10.13
2018-12-24T18:49:05.038Z,10.33
2018-12-24T18:55:09.604Z,10.00
2018-12-24T19:01:14.151Z,8.00
2018-12-24T19:07:18.762Z,11.03
2018-12-24T19:13:23.401Z,10.13
2018-12-24T19:19:27.951Z,11.50
2018-12-24T19:25:32.515Z,11.60
2018-12-24T19:31:37.068Z,8.50
2018-12-24T19:37:41.686Z,11.90
2018-12-24T19:43:46.245Z,13.63
2018-12-24T19:49:50.815Z,11.00
2018-12-24T19:55:55.445Z,9.60
2018-12-24T20:02:00.018Z,13.63
2018-12-24T20:08:04.633Z,9.57
2018-12-24T20:14:09.178Z,10.47
2018-12-24T20:20:13.848Z,12.40
2018-12-24T20:26:18.398Z,13.13
2018-12-24T20:32:23.041Z,12.03
2018-12-24T20:38:27.613Z,11.93
2018-12-24T20:44:32.212Z,13.40
2018-12-24T20:50:36.785Z,13.47
2018-12-24T20:56:41.434Z,17.17
2018-12-24T21:02:45.975Z,14.90
2018-12-24T21:08:50.543Z,11.63
2018-12-24T21:14:55.193Z,15.30
2018-12-24T21:20:59.756Z,15.80
2018-12-24T21:27:04.383Z,16.23
2018-12-24T21:33:08.949Z,13.13
2018-12-24T21:39:13.518Z,12.10
2018-12-24T21:45:18.075Z,11.20
2018-12-24T21:51:22.642Z,14.50
2018-12-24T21:57:27.240Z,13.73
2018-12-24T22:03:31.822Z,13.90
2018-12-24T22:09:36.374Z,12.10
2018-12-24T22:15:40.936Z,12.33
2018-12-24T22:21:45.522Z,13.07
2018-12-24T22:27:50.072Z,9.40
2018-12-24T22:33:54.703Z,19.43
2018-12-24T22:39:59.372Z,13.90
2018-12-24T22:46:04.002Z,17.53
2018-12-24T22:52:08.568Z,15.90
2018-12-24T22:58:13.128Z,9.67
2018-12-24T23:04:17.755Z,13.00
2018-12-24T23:10:22.324Z,10.97
2018-12-24T23:16:26.903Z,10.90
2018-12-24T23:22:33.104Z,10.93
2018-12-24T23:28:37.651Z,9.70
2018-12-24T23:34:42.233Z,9.00
2018-12-24T23:40:46.790Z,6.60
2018-12-24T23:46:51.379Z,11.63
2018-12-24T23:52:55.922Z,7.53
2018-12-24T23:59:00.632Z,10.40
